sensor_id;sensor_type;location;lat;lon;timestamp;P1;durP1;ratioP1;P2;durP2;ratioP2
59930;SDS011;45790;51.538;6.736;2024-02-28T00:01:22;29.25;;;16.33;;
59930;SDS011;45790;51.538;6.736;2024-02-28T00:03:47;31.08;;;16.33;;
59930;SDS011;45790;51.538;6.736;2024-02-28T00:06:12;30.30;;;15.95;;
59930;SDS011;45790;51.538;6.736;2024-02-28T00:08:37;26.83;;;15.82;;
59930;SDS011;45790;51.538;6.736;2024-02-28T00:11:03;30.73;;;16.15;;
59930;SDS011;45790;51.538;6.736;2024-02-28T00:13:28;28.05;;;15.90;;
59930;SDS011;45790;51.538;6.736;2024-02-28T00:15:53;29.50;;;15.90;;
59930;SDS011;45790;51.538;6.736;2024-02-28T00:18:18;28.10;;;15.40;;
59930;SDS011;45790;51.538;6.736;2024-02-28T00:20:44;31.17;;;17.02;;
59930;SDS011;45790;51.538;6.736;2024-02-28T00:23:09;26.33;;;15.57;;
59930;SDS011;45790;51.538;6.736;2024-02-28T00:25:35;27.98;;;15.77;;
59930;SDS011;45790;51.538;6.736;2024-02-28T00:28:00;30.10;;;15.65;;
59930;SDS011;45790;51.538;6.736;2024-02-28T00:30:25;34.55;;;18.30;;
59930;SDS011;45790;51.538;6.736;2024-02-28T00:32:52;33.40;;;16.70;;
59930;SDS011;45790;51.538;6.736;2024-02-28T00:35:18;34.78;;;16.92;;
59930;SDS011;45790;51.538;6.736;2024-02-28T00:37:43;36.95;;;16.33;;
59930;SDS011;45790;51.538;6.736;2024-02-28T00:40:08;31.55;;;16.70;;
59930;SDS011;45790;51.538;6.736;2024-02-28T00:42:34;113.03;;;18.40;;
59930;SDS011;45790;51.538;6.736;2024-02-28T00:44:59;105.00;;;16.80;;
59930;SDS011;45790;51.538;6.736;2024-02-28T00:47:24;60.00;;;16.08;;
59930;SDS011;45790;51.538;6.736;2024-02-28T00:49:49;56.45;;;17.00;;
59930;SDS011;45790;51.538;6.736;2024-02-28T00:52:14;55.17;;;16.80;;
59930;SDS011;45790;51.538;6.736;2024-02-28T00:54:40;38.67;;;16.67;;
59930;SDS011;45790;51.538;6.736;2024-02-28T00:57:05;135.40;;;18.10;;
59930;SDS011;45790;51.538;6.736;2024-02-28T00:59:30;40.83;;;16.75;;
59930;SDS011;45790;51.538;6.736;2024-02-28T01:01:55;113.68;;;17.65;;
59930;SDS011;45790;51.538;6.736;2024-02-28T01:04:20;52.77;;;16.80;;
59930;SDS011;45790;51.538;6.736;2024-02-28T01:06:45;41.07;;;17.57;;
59930;SDS011;45790;51.538;6.736;2024-02-28T01:09:11;58.10;;;17.38;;
59930;SDS011;45790;51.538;6.736;2024-02-28T01:11:36;48.50;;;18.50;;
59930;SDS011;45790;51.538;6.736;2024-02-28T01:14:01;77.27;;;17.23;;
59930;SDS011;45790;51.538;6.736;2024-02-28T01:16:26;110.70;;;16.80;;
59930;SDS011;45790;51.538;6.736;2024-02-28T01:18:52;37.38;;;16.83;;
59930;SDS011;45790;51.538;6.736;2024-02-28T01:21:18;100.18;;;17.88;;
59930;SDS011;45790;51.538;6.736;2024-02-28T01:23:43;53.50;;;16.97;;
59930;SDS011;45790;51.538;6.736;2024-02-28T01:26:08;65.85;;;17.95;;
59930;SDS011;45790;51.538;6.736;2024-02-28T01:28:33;57.20;;;16.92;;
59930;SDS011;45790;51.538;6.736;2024-02-28T01:30:58;57.60;;;17.35;;
59930;SDS011;45790;51.538;6.736;2024-02-28T01:33:25;60.33;;;17.88;;
59930;SDS011;45790;51.538;6.736;2024-02-28T01:35:50;35.72;;;17.02;;
59930;SDS011;45790;51.538;6.736;2024-02-28T01:38:15;58.40;;;17.90;;
59930;SDS011;45790;51.538;6.736;2024-02-28T01:40:46;69.97;;;16.97;;
59930;SDS011;45790;51.538;6.736;2024-02-28T01:43:12;42.88;;;15.73;;
59930;SDS011;45790;51.538;6.736;2024-02-28T01:45:37;63.83;;;16.70;;
59930;SDS011;45790;51.538;6.736;2024-02-28T01:48:02;54.20;;;17.10;;
59930;SDS011;45790;51.538;6.736;2024-02-28T01:50:30;103.68;;;17.02;;
59930;SDS011;45790;51.538;6.736;2024-02-28T01:52:55;58.03;;;15.93;;
59930;SDS011;45790;51.538;6.736;2024-02-28T01:55:20;133.40;;;16.45;;
59930;SDS011;45790;51.538;6.736;2024-02-28T01:57:45;154.13;;;17.27;;
59930;SDS011;45790;51.538;6.736;2024-02-28T02:00:10;51.05;;;15.48;;
59930;SDS011;45790;51.538;6.736;2024-02-28T02:02:36;78.35;;;16.92;;
59930;SDS011;45790;51.538;6.736;2024-02-28T02:05:02;64.43;;;16.35;;
59930;SDS011;45790;51.538;6.736;2024-02-28T02:07:27;65.53;;;15.80;;
59930;SDS011;45790;51.538;6.736;2024-02-28T02:09:52;75.00;;;17.33;;
59930;SDS011;45790;51.538;6.736;2024-02-28T02:12:18;74.47;;;17.35;;
59930;SDS011;45790;51.538;6.736;2024-02-28T02:14:49;83.07;;;16.35;;
59930;SDS011;45790;51.538;6.736;2024-02-28T02:17:14;114.32;;;17.25;;
59930;SDS011;45790;51.538;6.736;2024-02-28T02:19:39;69.50;;;16.55;;
59930;SDS011;45790;51.538;6.736;2024-02-28T02:22:05;100.93;;;18.55;;
59930;SDS011;45790;51.538;6.736;2024-02-28T02:24:30;98.22;;;18.65;;
59930;SDS011;45790;51.538;6.736;2024-02-28T02:26:58;53.20;;;16.70;;
59930;SDS011;45790;51.538;6.736;2024-02-28T02:29:24;89.93;;;18.30;;
59930;SDS011;45790;51.538;6.736;2024-02-28T02:31:49;75.60;;;18.20;;
59930;SDS011;45790;51.538;6.736;2024-02-28T02:34:14;83.20;;;17.75;;
59930;SDS011;45790;51.538;6.736;2024-02-28T02:36:39;79.27;;;17.77;;
59930;SDS011;45790;51.538;6.736;2024-02-28T02:39:04;68.57;;;18.37;;
59930;SDS011;45790;51.538;6.736;2024-02-28T02:41:30;49.97;;;17.50;;
59930;SDS011;45790;51.538;6.736;2024-02-28T02:43:55;45.70;;;17.13;;
59930;SDS011;45790;51.538;6.736;2024-02-28T02:46:20;61.22;;;18.73;;
59930;SDS011;45790;51.538;6.736;2024-02-28T02:48:45;64.03;;;19.20;;
59930;SDS011;45790;51.538;6.736;2024-02-28T02:51:10;79.18;;;17.95;;
59930;SDS011;45790;51.538;6.736;2024-02-28T02:53:36;58.50;;;18.85;;
59930;SDS011;45790;51.538;6.736;2024-02-28T02:56:03;73.82;;;19.17;;
59930;SDS011;45790;51.538;6.736;2024-02-28T02:58:28;69.63;;;18.30;;
59930;SDS011;45790;51.538;6.736;2024-02-28T03:00:53;116.95;;;21.50;;
59930;SDS011;45790;51.538;6.736;2024-02-28T03:03:18;77.25;;;20.05;;
59930;SDS011;45790;51.538;6.736;2024-02-28T03:05:44;154.85;;;20.35;;
59930;SDS011;45790;51.538;6.736;2024-02-28T03:08:09;53.28;;;19.05;;
59930;SDS011;45790;51.538;6.736;2024-02-28T03:10:34;81.90;;;20.13;;
59930;SDS011;45790;51.538;6.736;2024-02-28T03:12:59;96.80;;;22.23;;
59930;SDS011;45790;51.538;6.736;2024-02-28T03:15:25;120.38;;;21.38;;
59930;SDS011;45790;51.538;6.736;2024-02-28T03:17:50;53.28;;;21.58;;
59930;SDS011;45790;51.538;6.736;2024-02-28T03:20:16;51.87;;;20.37;;
59930;SDS011;45790;51.538;6.736;2024-02-28T03:22:41;61.85;;;20.75;;
59930;SDS011;45790;51.538;6.736;2024-02-28T03:25:06;61.83;;;19.83;;
59930;SDS011;45790;51.538;6.736;2024-02-28T03:27:31;76.35;;;20.42;;
59930;SDS011;45790;51.538;6.736;2024-02-28T03:29:56;53.97;;;21.73;;
59930;SDS011;45790;51.538;6.736;2024-02-28T03:32:22;67.78;;;21.77;;
59930;SDS011;45790;51.538;6.736;2024-02-28T03:34:47;70.55;;;21.85;;
59930;SDS011;45790;51.538;6.736;2024-02-28T03:37:13;64.18;;;20.63;;
59930;SDS011;45790;51.538;6.736;2024-02-28T03:39:38;64.30;;;21.63;;
59930;SDS011;45790;51.538;6.736;2024-02-28T03:42:03;55.25;;;21.95;;
59930;SDS011;45790;51.538;6.736;2024-02-28T03:44:28;57.83;;;22.48;;
59930;SDS011;45790;51.538;6.736;2024-02-28T03:46:53;55.53;;;22.42;;
59930;SDS011;45790;51.538;6.736;2024-02-28T03:49:19;67.47;;;23.38;;
59930;SDS011;45790;51.538;6.736;2024-02-28T03:51:44;64.70;;;24.88;;
59930;SDS011;45790;51.538;6.736;2024-02-28T03:54:09;62.23;;;22.40;;
59930;SDS011;45790;51.538;6.736;2024-02-28T03:56:34;61.80;;;24.30;;
59930;SDS011;45790;51.538;6.736;2024-02-28T03:59:00;56.47;;;23.75;;
59930;SDS011;45790;51.538;6.736;2024-02-28T04:01:25;70.10;;;23.75;;
59930;SDS011;45790;51.538;6.736;2024-02-28T04:03:50;66.03;;;25.30;;
59930;SDS011;45790;51.538;6.736;2024-02-28T04:06:16;79.00;;;25.00;;
59930;SDS011;45790;51.538;6.736;2024-02-28T04:08:41;55.57;;;23.87;;
59930;SDS011;45790;51.538;6.736;2024-02-28T04:11:07;50.67;;;23.27;;
59930;SDS011;45790;51.538;6.736;2024-02-28T04:13:32;48.75;;;22.67;;
59930;SDS011;45790;51.538;6.736;2024-02-28T04:15:57;75.47;;;26.40;;
59930;SDS011;45790;51.538;6.736;2024-02-28T04:18:22;72.63;;;26.23;;
59930;SDS011;45790;51.538;6.736;2024-02-28T04:20:48;95.40;;;26.13;;
59930;SDS011;45790;51.538;6.736;2024-02-28T04:23:13;52.92;;;24.27;;
59930;SDS011;45790;51.538;6.736;2024-02-28T04:25:38;55.22;;;22.92;;
59930;SDS011;45790;51.538;6.736;2024-02-28T04:28:05;137.77;;;24.38;;
59930;SDS011;45790;51.538;6.736;2024-02-28T04:30:30;53.47;;;23.80;;
59930;SDS011;45790;51.538;6.736;2024-02-28T04:32:55;47.83;;;24.17;;
59930;SDS011;45790;51.538;6.736;2024-02-28T04:35:21;47.33;;;24.40;;
59930;SDS011;45790;51.538;6.736;2024-02-28T04:37:46;54.88;;;23.38;;
59930;SDS011;45790;51.538;6.736;2024-02-28T04:40:11;52.95;;;22.35;;
59930;SDS011;45790;51.538;6.736;2024-02-28T04:42:36;53.22;;;24.85;;
59930;SDS011;45790;51.538;6.736;2024-02-28T04:45:02;108.50;;;23.67;;
59930;SDS011;45790;51.538;6.736;2024-02-28T04:47:28;50.10;;;23.08;;
59930;SDS011;45790;51.538;6.736;2024-02-28T04:49:53;76.30;;;22.63;;
59930;SDS011;45790;51.538;6.736;2024-02-28T04:52:18;43.33;;;21.52;;
59930;SDS011;45790;51.538;6.736;2024-02-28T04:54:43;106.63;;;22.47;;
59930;SDS011;45790;51.538;6.736;2024-02-28T04:57:10;53.55;;;21.42;;
59930;SDS011;45790;51.538;6.736;2024-02-28T04:59:35;118.85;;;22.35;;
59930;SDS011;45790;51.538;6.736;2024-02-28T05:02:00;41.47;;;20.58;;
59930;SDS011;45790;51.538;6.736;2024-02-28T05:04:25;50.10;;;21.87;;
59930;SDS011;45790;51.538;6.736;2024-02-28T05:06:50;46.83;;;22.95;;
59930;SDS011;45790;51.538;6.736;2024-02-28T05:09:15;45.20;;;22.17;;
59930;SDS011;45790;51.538;6.736;2024-02-28T05:11:41;42.65;;;21.80;;
59930;SDS011;45790;51.538;6.736;2024-02-28T05:14:06;39.42;;;21.40;;
59930;SDS011;45790;51.538;6.736;2024-02-28T05:16:31;124.97;;;22.67;;
59930;SDS011;45790;51.538;6.736;2024-02-28T05:18:57;69.10;;;21.90;;
59930;SDS011;45790;51.538;6.736;2024-02-28T05:21:22;42.65;;;21.23;;
59930;SDS011;45790;51.538;6.736;2024-02-28T05:23:48;41.65;;;22.77;;
59930;SDS011;45790;51.538;6.736;2024-02-28T05:26:13;43.58;;;23.30;;
59930;SDS011;45790;51.538;6.736;2024-02-28T05:28:38;35.05;;;21.02;;
59930;SDS011;45790;51.538;6.736;2024-02-28T05:31:20;41.05;;;23.27;;
59930;SDS011;45790;51.538;6.736;2024-02-28T05:33:46;43.92;;;22.67;;
59930;SDS011;45790;51.538;6.736;2024-02-28T05:36:11;51.15;;;22.83;;
59930;SDS011;45790;51.538;6.736;2024-02-28T05:38:36;42.42;;;22.73;;
59930;SDS011;45790;51.538;6.736;2024-02-28T05:41:01;40.45;;;22.23;;
59930;SDS011;45790;51.538;6.736;2024-02-28T05:43:26;44.38;;;22.13;;
59930;SDS011;45790;51.538;6.736;2024-02-28T05:45:52;39.38;;;22.23;;
59930;SDS011;45790;51.538;6.736;2024-02-28T05:48:17;43.95;;;21.88;;
59930;SDS011;45790;51.538;6.736;2024-02-28T05:50:43;40.60;;;23.15;;
59930;SDS011;45790;51.538;6.736;2024-02-28T05:53:08;38.53;;;22.35;;
59930;SDS011;45790;51.538;6.736;2024-02-28T05:55:34;39.92;;;23.60;;
59930;SDS011;45790;51.538;6.736;2024-02-28T05:57:59;45.60;;;23.67;;
59930;SDS011;45790;51.538;6.736;2024-02-28T06:00:24;46.80;;;24.60;;
59930;SDS011;45790;51.538;6.736;2024-02-28T06:02:49;44.07;;;23.50;;
59930;SDS011;45790;51.538;6.736;2024-02-28T06:05:14;95.53;;;25.13;;
59930;SDS011;45790;51.538;6.736;2024-02-28T06:07:39;45.08;;;23.42;;
59930;SDS011;45790;51.538;6.736;2024-02-28T06:10:05;44.20;;;23.73;;
59930;SDS011;45790;51.538;6.736;2024-02-28T06:12:30;42.95;;;23.45;;
59930;SDS011;45790;51.538;6.736;2024-02-28T06:14:55;43.88;;;24.80;;
59930;SDS011;45790;51.538;6.736;2024-02-28T06:17:20;49.70;;;24.30;;
59930;SDS011;45790;51.538;6.736;2024-02-28T06:19:46;50.47;;;25.60;;
59930;SDS011;45790;51.538;6.736;2024-02-28T06:24:42;50.67;;;24.05;;
59930;SDS011;45790;51.538;6.736;2024-02-28T06:27:07;48.60;;;23.88;;
59930;SDS011;45790;51.538;6.736;2024-02-28T06:29:37;47.53;;;23.83;;
59930;SDS011;45790;51.538;6.736;2024-02-28T06:32:02;51.25;;;25.70;;
59930;SDS011;45790;51.538;6.736;2024-02-28T06:34:28;49.10;;;25.17;;
59930;SDS011;45790;51.538;6.736;2024-02-28T06:36:53;50.25;;;25.17;;
59930;SDS011;45790;51.538;6.736;2024-02-28T06:39:18;54.75;;;25.17;;
59930;SDS011;45790;51.538;6.736;2024-02-28T06:41:43;46.88;;;25.05;;
59930;SDS011;45790;51.538;6.736;2024-02-28T06:44:08;49.67;;;25.10;;
59930;SDS011;45790;51.538;6.736;2024-02-28T06:46:34;54.15;;;26.77;;
59930;SDS011;45790;51.538;6.736;2024-02-28T06:48:59;53.65;;;26.63;;
59930;SDS011;45790;51.538;6.736;2024-02-28T06:51:27;54.57;;;27.33;;
59930;SDS011;45790;51.538;6.736;2024-02-28T06:53:52;56.38;;;28.77;;
59930;SDS011;45790;51.538;6.736;2024-02-28T06:56:17;59.83;;;28.45;;
59930;SDS011;45790;51.538;6.736;2024-02-28T06:58:43;60.97;;;29.00;;
59930;SDS011;45790;51.538;6.736;2024-02-28T07:01:08;59.20;;;28.98;;
59930;SDS011;45790;51.538;6.736;2024-02-28T07:03:33;63.05;;;29.50;;
59930;SDS011;45790;51.538;6.736;2024-02-28T07:05:58;60.45;;;28.85;;
59930;SDS011;45790;51.538;6.736;2024-02-28T07:08:24;61.75;;;28.90;;
59930;SDS011;45790;51.538;6.736;2024-02-28T07:10:49;68.53;;;31.13;;
59930;SDS011;45790;51.538;6.736;2024-02-28T07:13:18;79.68;;;33.05;;
59930;SDS011;45790;51.538;6.736;2024-02-28T07:15:43;68.55;;;30.98;;
59930;SDS011;45790;51.538;6.736;2024-02-28T07:18:08;79.20;;;33.35;;
59930;SDS011;45790;51.538;6.736;2024-02-28T07:20:34;93.75;;;36.60;;
59930;SDS011;45790;51.538;6.736;2024-02-28T07:22:59;89.00;;;34.53;;
59930;SDS011;45790;51.538;6.736;2024-02-28T07:25:24;82.30;;;33.15;;
59930;SDS011;45790;51.538;6.736;2024-02-28T07:27:50;67.70;;;31.45;;
59930;SDS011;45790;51.538;6.736;2024-02-28T07:30:15;72.68;;;30.55;;
59930;SDS011;45790;51.538;6.736;2024-02-28T07:32:40;87.20;;;33.83;;
59930;SDS011;45790;51.538;6.736;2024-02-28T07:35:05;78.60;;;33.10;;
59930;SDS011;45790;51.538;6.736;2024-02-28T07:37:31;85.05;;;34.15;;
59930;SDS011;45790;51.538;6.736;2024-02-28T07:39:56;75.87;;;31.77;;
59930;SDS011;45790;51.538;6.736;2024-02-28T07:42:21;72.57;;;30.27;;
59930;SDS011;45790;51.538;6.736;2024-02-28T07:44:46;83.00;;;31.85;;
59930;SDS011;45790;51.538;6.736;2024-02-28T07:47:11;75.28;;;31.92;;
59930;SDS011;45790;51.538;6.736;2024-02-28T07:49:37;75.47;;;30.75;;
59930;SDS011;45790;51.538;6.736;2024-02-28T07:52:02;67.40;;;29.07;;
59930;SDS011;45790;51.538;6.736;2024-02-28T07:54:27;66.07;;;28.60;;
59930;SDS011;45790;51.538;6.736;2024-02-28T07:56:52;58.97;;;27.70;;
59930;SDS011;45790;51.538;6.736;2024-02-28T07:59:18;54.67;;;26.20;;
59930;SDS011;45790;51.538;6.736;2024-02-28T08:01:43;68.82;;;27.83;;
59930;SDS011;45790;51.538;6.736;2024-02-28T08:04:09;54.67;;;25.42;;
59930;SDS011;45790;51.538;6.736;2024-02-28T08:06:35;62.13;;;26.03;;
59930;SDS011;45790;51.538;6.736;2024-02-28T08:09:00;63.25;;;26.88;;
59930;SDS011;45790;51.538;6.736;2024-02-28T08:11:25;64.45;;;27.67;;
59930;SDS011;45790;51.538;6.736;2024-02-28T08:13:50;66.15;;;26.80;;
59930;SDS011;45790;51.538;6.736;2024-02-28T08:16:16;60.03;;;25.80;;
59930;SDS011;45790;51.538;6.736;2024-02-28T08:18:41;69.97;;;26.40;;
59930;SDS011;45790;51.538;6.736;2024-02-28T08:21:06;60.55;;;26.92;;
59930;SDS011;45790;51.538;6.736;2024-02-28T08:23:31;61.08;;;26.63;;
59930;SDS011;45790;51.538;6.736;2024-02-28T08:25:57;62.15;;;29.10;;
59930;SDS011;45790;51.538;6.736;2024-02-28T08:28:22;62.00;;;27.23;;
59930;SDS011;45790;51.538;6.736;2024-02-28T08:30:48;71.40;;;29.40;;
59930;SDS011;45790;51.538;6.736;2024-02-28T08:33:13;67.85;;;28.52;;
59930;SDS011;45790;51.538;6.736;2024-02-28T08:35:38;63.53;;;28.55;;
59930;SDS011;45790;51.538;6.736;2024-02-28T08:38:03;72.35;;;30.48;;
59930;SDS011;45790;51.538;6.736;2024-02-28T08:40:29;77.65;;;30.40;;
59930;SDS011;45790;51.538;6.736;2024-02-28T08:42:55;83.13;;;30.95;;
59930;SDS011;45790;51.538;6.736;2024-02-28T08:45:20;77.22;;;32.50;;
59930;SDS011;45790;51.538;6.736;2024-02-28T08:47:45;66.07;;;28.83;;
59930;SDS011;45790;51.538;6.736;2024-02-28T08:50:10;76.77;;;31.50;;
59930;SDS011;45790;51.538;6.736;2024-02-28T08:52:36;77.78;;;31.92;;
59930;SDS011;45790;51.538;6.736;2024-02-28T08:55:01;78.10;;;30.33;;
59930;SDS011;45790;51.538;6.736;2024-02-28T08:57:26;75.72;;;31.63;;
59930;SDS011;45790;51.538;6.736;2024-02-28T08:59:52;62.58;;;28.83;;
59930;SDS011;45790;51.538;6.736;2024-02-28T09:02:18;71.13;;;29.10;;
59930;SDS011;45790;51.538;6.736;2024-02-28T09:04:43;79.50;;;29.27;;
59930;SDS011;45790;51.538;6.736;2024-02-28T09:07:08;70.43;;;30.45;;
59930;SDS011;45790;51.538;6.736;2024-02-28T09:09:33;61.75;;;26.73;;
59930;SDS011;45790;51.538;6.736;2024-02-28T09:12:02;69.57;;;30.48;;
59930;SDS011;45790;51.538;6.736;2024-02-28T09:14:28;59.67;;;28.60;;
59930;SDS011;45790;51.538;6.736;2024-02-28T09:16:53;69.25;;;30.30;;
59930;SDS011;45790;51.538;6.736;2024-02-28T09:19:20;59.63;;;27.77;;
59930;SDS011;45790;51.538;6.736;2024-02-28T09:21:46;58.38;;;26.58;;
59930;SDS011;45790;51.538;6.736;2024-02-28T09:24:13;63.17;;;27.48;;
59930;SDS011;45790;51.538;6.736;2024-02-28T09:26:41;56.90;;;26.42;;
59930;SDS011;45790;51.538;6.736;2024-02-28T09:29:06;67.63;;;29.23;;
59930;SDS011;45790;51.538;6.736;2024-02-28T09:31:31;56.22;;;26.60;;
59930;SDS011;45790;51.538;6.736;2024-02-28T09:33:56;68.85;;;29.85;;
59930;SDS011;45790;51.538;6.736;2024-02-28T09:36:23;55.85;;;27.30;;
59930;SDS011;45790;51.538;6.736;2024-02-28T09:38:48;67.07;;;27.10;;
59930;SDS011;45790;51.538;6.736;2024-02-28T09:41:17;63.23;;;28.63;;
59930;SDS011;45790;51.538;6.736;2024-02-28T09:43:42;57.13;;;27.20;;
59930;SDS011;45790;51.538;6.736;2024-02-28T09:46:08;60.33;;;27.80;;
59930;SDS011;45790;51.538;6.736;2024-02-28T09:48:38;61.88;;;27.73;;
59930;SDS011;45790;51.538;6.736;2024-02-28T09:51:03;64.38;;;27.70;;
59930;SDS011;45790;51.538;6.736;2024-02-28T09:53:28;56.05;;;25.88;;
59930;SDS011;45790;51.538;6.736;2024-02-28T09:55:54;54.17;;;25.90;;
59930;SDS011;45790;51.538;6.736;2024-02-28T09:58:19;53.47;;;25.42;;
59930;SDS011;45790;51.538;6.736;2024-02-28T10:00:46;59.97;;;27.65;;
59930;SDS011;45790;51.538;6.736;2024-02-28T10:03:12;55.83;;;26.05;;
59930;SDS011;45790;51.538;6.736;2024-02-28T10:05:38;61.45;;;26.05;;
59930;SDS011;45790;51.538;6.736;2024-02-28T10:08:04;59.35;;;27.50;;
59930;SDS011;45790;51.538;6.736;2024-02-28T10:10:29;58.47;;;26.25;;
59930;SDS011;45790;51.538;6.736;2024-02-28T10:12:54;51.92;;;24.88;;
59930;SDS011;45790;51.538;6.736;2024-02-28T10:15:20;51.13;;;24.45;;
59930;SDS011;45790;51.538;6.736;2024-02-28T10:17:47;55.13;;;24.83;;
59930;SDS011;45790;51.538;6.736;2024-02-28T10:20:12;52.58;;;25.00;;
59930;SDS011;45790;51.538;6.736;2024-02-28T10:22:37;51.22;;;25.33;;
59930;SDS011;45790;51.538;6.736;2024-02-28T10:25:03;50.33;;;23.90;;
59930;SDS011;45790;51.538;6.736;2024-02-28T10:27:31;51.92;;;24.77;;
59930;SDS011;45790;51.538;6.736;2024-02-28T10:29:56;51.17;;;25.55;;
59930;SDS011;45790;51.538;6.736;2024-02-28T10:32:21;48.75;;;24.25;;
59930;SDS011;45790;51.538;6.736;2024-02-28T10:34:47;51.92;;;24.65;;
59930;SDS011;45790;51.538;6.736;2024-02-28T10:37:12;42.33;;;23.42;;
59930;SDS011;45790;51.538;6.736;2024-02-28T10:39:38;46.25;;;23.15;;
59930;SDS011;45790;51.538;6.736;2024-02-28T10:42:03;47.20;;;23.92;;
59930;SDS011;45790;51.538;6.736;2024-02-28T10:44:29;49.08;;;24.98;;
59930;SDS011;45790;51.538;6.736;2024-02-28T10:46:55;48.47;;;24.13;;
59930;SDS011;45790;51.538;6.736;2024-02-28T10:49:21;49.80;;;24.15;;
59930;SDS011;45790;51.538;6.736;2024-02-28T10:51:48;48.42;;;24.27;;
59930;SDS011;45790;51.538;6.736;2024-02-28T10:54:13;48.13;;;23.77;;
59930;SDS011;45790;51.538;6.736;2024-02-28T10:56:40;48.58;;;24.85;;
59930;SDS011;45790;51.538;6.736;2024-02-28T10:59:06;45.67;;;23.90;;
59930;SDS011;45790;51.538;6.736;2024-02-28T11:01:32;47.63;;;24.30;;
59930;SDS011;45790;51.538;6.736;2024-02-28T11:03:57;57.83;;;25.45;;
59930;SDS011;45790;51.538;6.736;2024-02-28T11:06:22;49.58;;;25.38;;
59930;SDS011;45790;51.538;6.736;2024-02-28T11:08:48;50.65;;;26.13;;
59930;SDS011;45790;51.538;6.736;2024-02-28T11:11:19;53.00;;;27.00;;
59930;SDS011;45790;51.538;6.736;2024-02-28T11:13:54;55.28;;;27.77;;
59930;SDS011;45790;51.538;6.736;2024-02-28T11:16:32;52.63;;;26.45;;
59930;SDS011;45790;51.538;6.736;2024-02-28T11:18:58;52.80;;;25.83;;
59930;SDS011;45790;51.538;6.736;2024-02-28T11:21:23;60.95;;;28.23;;
59930;SDS011;45790;51.538;6.736;2024-02-28T11:23:50;56.10;;;26.98;;
59930;SDS011;45790;51.538;6.736;2024-02-28T11:26:16;53.47;;;26.58;;
59930;SDS011;45790;51.538;6.736;2024-02-28T11:28:41;53.67;;;27.48;;
59930;SDS011;45790;51.538;6.736;2024-02-28T11:31:06;52.67;;;25.73;;
59930;SDS011;45790;51.538;6.736;2024-02-28T11:33:31;58.58;;;26.27;;
59930;SDS011;45790;51.538;6.736;2024-02-28T11:35:58;53.47;;;25.02;;
59930;SDS011;45790;51.538;6.736;2024-02-28T11:38:26;51.35;;;25.95;;
59930;SDS011;45790;51.538;6.736;2024-02-28T11:40:52;43.47;;;23.35;;
59930;SDS011;45790;51.538;6.736;2024-02-28T11:43:17;47.47;;;23.33;;
59930;SDS011;45790;51.538;6.736;2024-02-28T11:45:43;47.50;;;24.35;;
59930;SDS011;45790;51.538;6.736;2024-02-28T11:48:08;46.55;;;23.83;;
59930;SDS011;45790;51.538;6.736;2024-02-28T11:50:33;44.50;;;22.45;;
59930;SDS011;45790;51.538;6.736;2024-02-28T11:52:59;48.17;;;23.45;;
59930;SDS011;45790;51.538;6.736;2024-02-28T11:55:26;43.92;;;22.08;;
59930;SDS011;45790;51.538;6.736;2024-02-28T11:57:52;47.85;;;23.55;;
59930;SDS011;45790;51.538;6.736;2024-02-28T12:00:17;52.42;;;25.27;;
59930;SDS011;45790;51.538;6.736;2024-02-28T12:02:42;50.75;;;24.65;;
59930;SDS011;45790;51.538;6.736;2024-02-28T12:05:07;45.03;;;23.13;;
59930;SDS011;45790;51.538;6.736;2024-02-28T12:07:34;47.63;;;23.80;;
59930;SDS011;45790;51.538;6.736;2024-02-28T12:09:59;47.38;;;23.48;;
59930;SDS011;45790;51.538;6.736;2024-02-28T12:12:25;49.15;;;24.38;;
59930;SDS011;45790;51.538;6.736;2024-02-28T12:14:51;46.05;;;23.63;;
59930;SDS011;45790;51.538;6.736;2024-02-28T12:17:17;42.33;;;22.52;;
59930;SDS011;45790;51.538;6.736;2024-02-28T12:19:42;43.83;;;21.30;;
59930;SDS011;45790;51.538;6.736;2024-02-28T12:22:08;44.33;;;21.75;;
59930;SDS011;45790;51.538;6.736;2024-02-28T12:24:33;45.30;;;22.20;;
59930;SDS011;45790;51.538;6.736;2024-02-28T12:26:58;42.90;;;20.87;;
59930;SDS011;45790;51.538;6.736;2024-02-28T12:29:23;34.72;;;19.48;;
59930;SDS011;45790;51.538;6.736;2024-02-28T12:31:49;36.28;;;19.50;;
59930;SDS011;45790;51.538;6.736;2024-02-28T12:34:14;36.15;;;19.05;;
59930;SDS011;45790;51.538;6.736;2024-02-28T12:36:40;35.92;;;20.00;;
59930;SDS011;45790;51.538;6.736;2024-02-28T12:39:05;35.00;;;19.25;;
59930;SDS011;45790;51.538;6.736;2024-02-28T12:41:31;36.25;;;18.63;;
59930;SDS011;45790;51.538;6.736;2024-02-28T12:43:56;36.25;;;18.38;;
59930;SDS011;45790;51.538;6.736;2024-02-28T12:46:21;34.90;;;18.95;;
59930;SDS011;45790;51.538;6.736;2024-02-28T12:48:47;36.70;;;20.00;;
59930;SDS011;45790;51.538;6.736;2024-02-28T12:51:57;37.25;;;18.23;;
59930;SDS011;45790;51.538;6.736;2024-02-28T12:53:57;33.35;;;17.40;;
59930;SDS011;45790;51.538;6.736;2024-02-28T12:56:23;34.60;;;18.93;;
59930;SDS011;45790;51.538;6.736;2024-02-28T12:58:48;34.60;;;19.07;;
59930;SDS011;45790;51.538;6.736;2024-02-28T13:01:13;35.97;;;18.17;;
59930;SDS011;45790;51.538;6.736;2024-02-28T13:03:38;32.88;;;18.95;;
59930;SDS011;45790;51.538;6.736;2024-02-28T13:06:03;38.90;;;18.63;;
59930;SDS011;45790;51.538;6.736;2024-02-28T13:08:29;37.03;;;18.75;;
59930;SDS011;45790;51.538;6.736;2024-02-28T13:10:54;35.45;;;17.83;;
59930;SDS011;45790;51.538;6.736;2024-02-28T13:13:19;33.15;;;18.02;;
59930;SDS011;45790;51.538;6.736;2024-02-28T13:15:44;35.00;;;17.63;;
59930;SDS011;45790;51.538;6.736;2024-02-28T13:18:10;30.85;;;17.88;;
59930;SDS011;45790;51.538;6.736;2024-02-28T13:20:36;33.25;;;18.38;;
59930;SDS011;45790;51.538;6.736;2024-02-28T13:23:02;32.45;;;18.00;;
59930;SDS011;45790;51.538;6.736;2024-02-28T13:25:28;31.08;;;18.25;;
59930;SDS011;45790;51.538;6.736;2024-02-28T13:27:53;29.85;;;18.17;;
59930;SDS011;45790;51.538;6.736;2024-02-28T13:30:18;28.80;;;18.10;;
59930;SDS011;45790;51.538;6.736;2024-02-28T13:32:44;34.92;;;18.48;;
59930;SDS011;45790;51.538;6.736;2024-02-28T13:35:09;30.55;;;18.15;;
59930;SDS011;45790;51.538;6.736;2024-02-28T13:37:35;30.13;;;17.42;;
59930;SDS011;45790;51.538;6.736;2024-02-28T13:40:01;32.92;;;18.23;;
59930;SDS011;45790;51.538;6.736;2024-02-28T13:42:29;31.02;;;18.75;;
59930;SDS011;45790;51.538;6.736;2024-02-28T13:44:54;29.30;;;17.60;;
59930;SDS011;45790;51.538;6.736;2024-02-28T13:47:20;29.13;;;17.50;;
59930;SDS011;45790;51.538;6.736;2024-02-28T13:49:45;31.83;;;17.45;;
59930;SDS011;45790;51.538;6.736;2024-02-28T13:52:12;34.60;;;18.10;;
59930;SDS011;45790;51.538;6.736;2024-02-28T13:54:37;30.80;;;17.65;;
59930;SDS011;45790;51.538;6.736;2024-02-28T13:57:02;31.55;;;17.85;;
59930;SDS011;45790;51.538;6.736;2024-02-28T13:59:29;30.13;;;16.65;;
59930;SDS011;45790;51.538;6.736;2024-02-28T14:01:55;30.75;;;17.25;;
59930;SDS011;45790;51.538;6.736;2024-02-28T14:04:20;27.88;;;16.63;;
59930;SDS011;45790;51.538;6.736;2024-02-28T14:06:45;29.13;;;16.85;;
59930;SDS011;45790;51.538;6.736;2024-02-28T14:09:11;30.08;;;17.27;;
59930;SDS011;45790;51.538;6.736;2024-02-28T14:11:36;29.05;;;16.63;;
59930;SDS011;45790;51.538;6.736;2024-02-28T14:14:01;29.65;;;17.25;;